Time;durP1;ratioP1;P1;durP2;ratioP2;P2;SDS_P1;SDS_P2;PMS_P1;PMS_P2;Temp;Humidity;BMP_temperature;BMP_pressure;BME280_temperature;BME280_humidity;BME280_pressure;Samples;Min_cycle;Max_cycle;Signal;HPM_P1;HPM_P2
2021/04/05 03:03:14;;;;;;;50.52;29.90;;;;;;;-2.25;100.00;100004.09;1728981;79;21145;-67
2021/04/05 03:05:43;;;;;;;53.40;31.33;;;;;;;-2.23;100.00;100015.03;1734194;80;21911;-66
2021/04/05 03:08:11;;;;;;;48.95;27.17;;;;;;;-2.19;100.00;100009.25;1741821;80;21160;-66
2021/04/05 03:10:40;;;;;;;52.90;29.42;;;;;;;-2.16;100.00;100009.48;1743405;80;21200;-67
2021/04/05 03:13:09;;;;;;;44.95;26.57;;;;;;;-2.15;100.00;100007.30;1739728;80;38721;-70
2021/04/05 03:15:38;;;;;;;38.90;24.82;;;;;;;-2.13;100.00;100007.99;1740051;80;22164;-67
2021/04/05 03:18:06;;;;;;;35.52;24.10;;;;;;;-2.12;100.00;100005.34;1739783;80;21430;-67
2021/04/05 03:20:35;;;;;;;36.98;23.30;;;;;;;-2.09;100.00;100010.69;1737743;80;21110;-67
2021/04/05 03:23:03;;;;;;;39.40;23.52;;;;;;;-2.07;100.00;100006.30;1742194;80;21204;-67
2021/04/05 03:25:32;;;;;;;39.42;26.65;;;;;;;-2.06;100.00;100006.64;1739546;80;21153;-67
2021/04/05 03:28:01;;;;;;;40.88;25.57;;;;;;;-2.05;100.00;100005.70;1744602;80;21140;-67
2021/04/05 03:30:37;;;;;;;52.35;27.35;;;;;;;-2.04;100.00;100006.09;1778411;79;22520;-66
2021/04/05 03:33:13;;;;;;;41.33;27.00;;;;;;;-2.02;100.00;100008.05;1777725;79;21077;-67
2021/04/05 03:35:44;;;;;;;42.88;26.87;;;;;;;-2.02;100.00;99998.65;1737193;79;21176;-66
2021/04/05 03:38:12;;;;;;;33.83;22.45;;;;;;;-2.04;100.00;99999.23;1778870;79;20994;-67
2021/04/05 03:40:44;;;;;;;40.10;25.30;;;;;;;-2.03;100.00;100008.98;1774920;79;21190;-67
2021/04/05 03:43:29;;;;;;;52.88;30.23;;;;;;;-2.03;100.00;100011.08;1777349;79;22254;-68
2021/04/05 03:45:58;;;;;;;53.33;32.48;;;;;;;-1.96;100.00;100012.73;1775524;79;20942;-67
2021/04/05 03:48:59;;;;;;;52.98;32.08;;;;;;;-1.93;100.00;100016.80;1778825;79;20930;-66
2021/04/05 03:51:44;;;;;;;48.68;29.55;;;;;;;-1.87;100.00;100016.37;1758140;79;21172;-69
2021/04/05 03:54:15;;;;;;;50.78;30.20;;;;;;;-1.75;100.00;100018.04;1777859;79;21097;-67
2021/04/05 03:56:46;;;;;;;51.23;32.13;;;;;;;-1.65;100.00;100019.48;1778813;79;21248;-66
2021/04/05 03:59:27;;;;;;;56.18;31.82;;;;;;;-1.62;100.00;100015.44;1776190;79;21604;-69
2021/04/05 04:02:03;;;;;;;51.80;34.63;;;;;;;-1.58;100.00;100007.44;1774742;79;21113;-66
2021/04/05 04:07:13;;;;;;;49.35;31.48;;;;;;;-1.44;100.00;100004.32;1774273;79;20983;-67
2021/04/05 04:09:40;;;;;;;50.48;30.32;;;;;;;-1.37;100.00;100004.22;1776981;79;21179;-69
2021/04/05 04:12:12;;;;;;;53.15;34.50;;;;;;;-1.33;100.00;100007.72;1774440;79;21038;-67
2021/04/05 04:14:41;;;;;;;54.18;31.75;;;;;;;-1.24;100.00;100008.33;1772781;79;20974;-69
2021/04/05 04:17:10;;;;;;;53.85;33.02;;;;;;;-1.11;100.00;100009.97;1775087;79;20994;-68
2021/04/05 04:19:39;;;;;;;58.85;33.98;;;;;;;-0.97;100.00;100010.23;1777929;79;21157;-68
2021/04/05 04:22:08;;;;;;;47.80;32.05;;;;;;;-0.88;100.00;100011.62;1774259;79;21393;-67
2021/04/05 04:24:37;;;;;;;48.95;32.05;;;;;;;-0.81;100.00;100010.70;1777001;79;21085;-68
2021/04/05 04:27:07;;;;;;;54.27;33.23;;;;;;;-0.76;100.00;100005.59;1770210;79;21208;-68
2021/04/05 04:29:35;;;;;;;45.78;28.60;;;;;;;-0.74;100.00;99999.07;1775865;79;20974;-68
2021/04/05 04:32:06;;;;;;;46.53;29.70;;;;;;;-0.70;100.00;99994.06;1772378;79;21078;-68
2021/04/05 04:34:34;;;;;;;48.90;29.82;;;;;;;-0.60;100.00;99994.19;1773337;79;22997;-69
2021/04/05 04:37:04;;;;;;;50.33;31.97;;;;;;;-0.50;100.00;99990.78;1774518;79;21615;-69
2021/04/05 04:39:32;;;;;;;51.70;31.95;;;;;;;-0.35;100.00;99975.97;1773340;79;21149;-69
2021/04/05 04:42:03;;;;;;;47.75;31.05;;;;;;;-0.18;100.00;99974.67;1772199;79;21184;-70
2021/04/05 04:44:31;;;;;;;46.33;27.10;;;;;;;0.02;100.00;99971.80;1771279;79;21622;-69
2021/04/05 04:46:59;;;;;;;53.40;34.05;;;;;;;0.17;100.00;99967.20;1770623;79;21265;-70
2021/04/05 04:49:28;;;;;;;48.92;30.32;;;;;;;0.42;100.00;99962.20;1765821;79;21100;-69
2021/04/05 04:51:57;;;;;;;48.25;31.05;;;;;;;0.70;100.00;99964.11;1773975;79;20931;-70
2021/04/05 04:54:25;;;;;;;52.93;32.28;;;;;;;0.95;100.00;99959.05;1766750;79;21050;-69
2021/04/05 04:56:54;;;;;;;56.48;33.50;;;;;;;1.19;100.00;99959.20;1768276;79;21196;-69
2021/04/05 04:59:24;;;;;;;55.40;34.35;;;;;;;1.40;100.00;99956.55;1767852;79;22184;-69
2021/04/05 05:01:52;;;;;;;49.55;34.08;;;;;;;1.62;100.00;99946.05;1769111;79;20999;-70
2021/04/05 05:04:23;;;;;;;46.20;30.82;;;;;;;1.80;100.00;99942.84;1759644;80;21054;-69
2021/04/05 05:06:58;;;;;;;53.68;30.52;;;;;;;1.91;100.00;99944.80;1774247;79;25008;-70
2021/04/05 05:09:27;;;;;;;41.58;28.17;;;;;;;2.06;100.00;99945.22;1764558;79;21133;-72
2021/04/05 05:11:55;;;;;;;44.73;27.55;;;;;;;2.12;100.00;99939.54;1769847;79;21195;-73
2021/04/05 05:14:24;;;;;;;47.17;30.88;;;;;;;2.08;100.00;99933.50;1771524;79;20971;-72
2021/04/05 05:16:53;;;;;;;38.48;26.90;;;;;;;2.07;100.00;99926.27;1767523;79;21105;-72
2021/04/05 05:19:22;;;;;;;43.63;26.27;;;;;;;2.13;100.00;99927.02;1774046;79;21220;-73
2021/04/05 05:21:52;;;;;;;41.60;26.77;;;;;;;2.26;100.00;99923.34;1772614;79;21145;-73
2021/04/05 05:24:22;;;;;;;44.13;29.67;;;;;;;2.44;100.00;99926.35;1775882;79;21195;-73
2021/04/05 05:26:50;;;;;;;44.03;28.35;;;;;;;2.61;100.00;99923.55;1775200;79;20994;-73
2021/04/05 05:29:21;;;;;;;49.15;30.35;;;;;;;2.73;100.00;99917.76;1760008;79;21157;-74
2021/04/05 05:31:49;;;;;;;38.90;25.92;;;;;;;2.82;100.00;99923.81;1762421;79;21136;-72
2021/04/05 05:34:22;;;;;;;40.88;27.35;;;;;;;2.86;100.00;99918.72;1775691;79;21477;-72
2021/04/05 05:36:51;;;;;;;40.90;25.55;;;;;;;2.85;100.00;99924.83;1777985;79;21543;-73
2021/04/05 05:39:20;;;;;;;43.42;28.38;;;;;;;2.81;100.00;99920.44;1775778;79;21165;-73
2021/04/05 05:42:12;;;;;;;36.63;25.80;;;;;;;2.75;100.00;99917.61;1774591;79;21073;-73
2021/04/05 05:44:49;;;;;;;48.52;27.35;;;;;;;2.74;100.00;99921.14;1777359;79;21168;-72
2021/04/05 05:47:47;;;;;;;50.05;30.40;;;;;;;2.71;100.00;99925.27;1761427;79;21053;-76
2021/04/05 05:50:55;;;;;;;45.38;30.82;;;;;;;2.70;100.00;99922.38;1785270;79;21371;-71
2021/04/05 05:54:00;;;;;;;47.40;30.15;;;;;;;2.80;100.00;99925.23;1776342;79;21151;-72
2021/04/05 05:56:56;;;;;;;49.60;32.85;;;;;;;2.88;100.00;99921.98;1774056;79;22230;-73
2021/04/05 05:59:50;;;;;;;47.15;30.65;;;;;;;2.94;100.00;99920.10;1775693;79;21117;-75
2021/04/05 06:02:38;;;;;;;52.10;34.67;;;;;;;3.06;100.00;99924.11;1762411;79;21603;-73
2021/04/05 06:05:21;;;;;;;55.60;36.10;;;;;;;3.25;100.00;99915.95;1780129;79;21340;-69
2021/04/05 06:08:17;;;;;;;58.25;39.15;;;;;;;3.49;100.00;99911.56;1789460;77;21248;-71
2021/04/05 06:11:05;;;;;;;59.98;40.40;;;;;;;3.66;100.00;99918.00;1812769;77;21029;-72
2021/04/05 06:13:46;;;;;;;73.42;46.20;;;;;;;3.74;100.00;99919.04;1813490;77;21484;-73
2021/04/05 06:16:51;;;;;;;58.85;43.73;;;;;;;3.86;100.00;99918.69;1818574;77;21112;-72
2021/04/05 06:19:37;;;;;;;77.22;46.63;;;;;;;3.92;100.00;99913.89;1815425;77;21427;-72
2021/04/05 06:22:28;;;;;;;74.35;50.90;;;;;;;3.92;100.00;99917.27;1811020;77;21164;-72
2021/04/05 06:25:33;;;;;;;74.17;48.60;;;;;;;3.92;100.00;99914.69;1788063;77;21120;-72
2021/04/05 06:28:10;;;;;;;88.70;54.93;;;;;;;4.02;100.00;99914.14;1811273;77;20993;-72
2021/04/05 06:31:08;;;;;;;71.15;48.63;;;;;;;4.27;100.00;99913.83;1794780;77;21168;-73
2021/04/05 06:33:41;;;;;;;74.45;48.87;;;;;;;4.54;100.00;99917.23;1790797;77;21208;-75
2021/04/05 06:36:19;;;;;;;;;;;;;;;4.86;100.00;99915.32;1810566;77;21179;-73
2021/04/05 06:38:52;;;;;;;79.72;54.03;;;;;;;5.08;100.00;99918.64;1808313;77;20223;-75
2021/04/05 06:42:17;;;;;;;79.05;54.27;;;;;;;5.19;100.00;99907.68;1807984;77;21657;-72
2021/04/05 06:45:08;;;;;;;86.22;53.70;;;;;;;5.24;100.00;99911.43;1811070;77;21010;-77
2021/04/05 06:47:45;;;;;;;71.72;48.58;;;;;;;5.33;100.00;99907.09;1810791;77;22146;-75
2021/04/05 06:50:53;;;;;;;72.15;48.70;;;;;;;5.57;100.00;99903.77;1802477;77;21154;-73
2021/04/05 06:53:47;;;;;;;62.17;43.42;;;;;;;5.91;100.00;99899.76;1803317;77;21500;-77
2021/04/05 06:56:55;;;;;;;73.33;49.77;;;;;;;6.19;100.00;99895.57;1785008;77;21138;-75
2021/04/05 06:59:51;;;;;;;79.40;51.47;;;;;;;6.26;100.00;99888.77;1807117;77;21348;-75
2021/04/05 07:06:17;;;;;;;75.07;51.30;;;;;;;6.54;100.00;99897.77;1802093;78;22600;-74
2021/04/05 07:08:55;;;;;;;79.97;52.33;;;;;;;6.60;100.00;99885.95;1776996;79;21049;-74
2021/04/05 07:11:28;;;;;;;64.25;43.20;;;;;;;6.67;100.00;99880.92;1766516;79;22718;-74
2021/04/05 07:14:37;;;;;;;56.77;39.20;;;;;;;6.80;100.00;99877.30;1782510;79;21697;-72
2021/04/05 07:17:20;;;;;;;65.77;43.03;;;;;;;6.96;100.00;99877.22;1774663;79;21367;-73
2021/04/05 07:20:24;;;;;;;56.30;39.13;;;;;;;7.21;100.00;99870.15;1778761;79;21249;-74
2021/04/05 07:23:01;;;;;;;47.93;33.20;;;;;;;7.26;100.00;99865.74;1783010;80;21272;-75
2021/04/05 07:25:36;;;;;;;40.33;28.87;;;;;;;7.20;100.00;99874.22;1776017;79;21333;-75
2021/04/05 07:28:35;;;;;;;41.47;30.53;;;;;;;7.19;100.00;99870.80;1754756;79;21190;-74
2021/04/05 07:31:34;;;;;;;37.03;28.27;;;;;;;7.26;100.00;99868.33;1765999;80;21858;-77
2021/04/05 07:34:56;;;;;;;38.90;29.07;;;;;;;7.30;100.00;99868.31;1780961;80;21114;-73
2021/04/05 07:37:54;;;;;;;34.10;26.20;;;;;;;7.27;100.00;99869.48;1723664;81;21616;-77
2021/04/05 07:40:45;;;;;;;36.93;25.67;;;;;;;7.39;100.00;99872.48;1714783;82;21391;-74
2021/04/05 07:43:49;;;;;;;39.27;28.50;;;;;;;7.38;100.00;99865.66;1705558;82;21036;-74
2021/04/05 07:46:26;;;;;;;34.97;27.67;;;;;;;7.35;100.00;99861.30;1704616;82;21892;-74
2021/04/05 07:49:27;;;;;;;33.97;28.40;;;;;;;7.26;100.00;99860.06;1720136;82;21234;-74
2021/04/05 07:52:05;;;;;;;37.70;29.57;;;;;;;7.27;100.00;99844.02;1712849;82;21456;-75
2021/04/05 07:54:38;;;;;;;33.40;27.03;;;;;;;7.35;100.00;99844.45;1694034;82;21482;-75
2021/04/05 07:57:30;;;;;;;37.27;29.50;;;;;;;7.46;100.00;99842.30;1718369;82;21287;-76
2021/04/05 08:00:13;;;;;;;32.23;24.87;;;;;;;7.52;100.00;99841.59;1727288;82;21366;-74
2021/04/05 08:02:59;;;;;;;31.17;24.30;;;;;;;7.66;100.00;99830.95;1722286;82;20994;-75
2021/04/05 08:05:50;;;;;;;34.20;25.83;;;;;;;7.89;100.00;99821.84;1717800;82;21506;-76
2021/04/05 08:08:46;;;;;;;35.50;27.30;;;;;;;8.07;100.00;99818.09;1698560;83;21362;-75
2021/04/05 08:11:53;;;;;;;37.97;30.43;;;;;;;8.20;100.00;99811.31;1762319;80;21652;-73
2021/04/05 08:14:58;;;;;;;40.70;31.90;;;;;;;8.38;100.00;99807.10;1761970;80;21491;-78
2021/04/05 08:18:03;;;;;;;38.87;31.67;;;;;;;8.58;100.00;99803.95;1711795;80;21401;-71
2021/04/05 08:20:44;;;;;;;38.77;29.90;;;;;;;8.80;100.00;99803.52;1757317;80;21832;-73
2021/04/05 08:23:24;;;;;;;39.48;30.08;;;;;;;9.00;100.00;99793.64;1749422;80;21323;-73
2021/04/05 08:29:27;;;;;;;32.43;29.03;;;;;;;9.33;100.00;99775.47;1853159;75;27756;-75
2021/04/05 08:32:21;;;;;;;29.23;23.13;;;;;;;9.38;100.00;99778.30;1839800;76;20985;-75
2021/04/05 08:35:33;;;;;;;27.63;23.53;;;;;;;9.16;100.00;99760.59;1832551;77;21532;-72
2021/04/05 08:38:18;;;;;;;32.75;25.82;;;;;;;9.16;100.00;99760.59;1820534;76;21942;-73
2021/04/05 08:41:31;;;;;;;28.87;22.50;;;;;;;9.04;100.00;99755.08;1835727;76;21104;-76
2021/04/05 08:44:15;;;;;;;21.40;17.93;;;;;;;9.00;100.00;99748.64;1827378;77;22079;-73
2021/04/05 08:46:44;;;;;;;21.10;18.20;;;;;;;9.09;100.00;99742.82;1836039;76;21455;-73
2021/04/05 08:49:16;;;;;;;20.67;17.77;;;;;;;9.15;100.00;99740.29;1796349;77;21473;-74
2021/04/05 08:51:48;;;;;;;23.03;19.33;;;;;;;9.21;100.00;99737.45;1782492;78;21946;-72
2021/04/05 08:54:26;;;;;;;26.60;19.57;;;;;;;9.37;100.00;99733.28;1789325;78;21305;-74
2021/04/05 08:57:00;;;;;;;23.03;17.90;;;;;;;9.61;100.00;99731.25;1768281;79;21203;-73
2021/04/05 08:59:59;;;;;;;18.00;14.40;;;;;;;9.75;100.00;99723.35;1788080;79;21719;-73
2021/04/05 09:02:38;;;;;;;18.10;14.83;;;;;;;9.89;100.00;99717.74;1788981;79;21762;-72
2021/04/05 09:05:22;;;;;;;16.00;12.77;;;;;;;9.89;100.00;99724.25;1781195;79;21816;-73
2021/04/05 09:08:05;;;;;;;17.90;14.50;;;;;;;9.83;100.00;99713.79;1776480;79;21685;-71
2021/04/05 09:10:50;;;;;;;16.37;14.00;;;;;;;9.73;100.00;99712.31;1788493;79;22197;-72
2021/04/05 09:13:45;;;;;;;15.33;13.73;;;;;;;9.56;100.00;99698.00;1775974;79;22604;-75
2021/04/05 09:16:40;;;;;;;17.17;14.00;;;;;;;9.56;100.00;99702.41;1769038;79;21874;-76
2021/04/05 09:19:28;;;;;;;14.97;13.17;;;;;;;9.53;100.00;99696.28;1774669;79;22672;-73
2021/04/05 09:22:14;;;;;;;13.40;10.57;;;;;;;9.59;100.00;99687.72;1772743;78;22337;-74
2021/04/05 09:25:14;;;;;;;14.57;12.63;;;;;;;9.84;100.00;99687.55;1783079;78;21567;-79
2021/04/05 09:28:06;;;;;;;13.23;11.40;;;;;;;9.98;100.00;99674.92;1784919;79;21882;-75
2021/04/05 09:31:07;;;;;;;12.27;10.93;;;;;;;9.93;100.00;99689.02;1776871;79;21581;-77
2021/04/05 09:34:16;;;;;;;10.67;9.57;;;;;;;9.93;100.00;99689.02;1773156;79;22397;-76
2021/04/05 09:36:56;;;;;;;11.83;10.73;;;;;;;9.83;100.00;99685.16;1769167;79;21914;-73
2021/04/05 09:39:51;;;;;;;8.83;7.93;;;;;;;9.86;100.00;99682.97;1785389;79;21852;-76
2021/04/05 09:43:01;;;;;;;9.53;7.53;;;;;;;9.98;100.00;99684.53;1777956;79;22052;-80
2021/04/05 09:45:59;;;;;;;8.33;6.77;;;;;;;9.91;100.00;99676.68;1749581;79;22307;-72
2021/04/05 09:48:59;;;;;;;9.13;7.70;;;;;;;9.81;100.00;99682.75;1756441;79;21845;-72
2021/04/05 09:51:49;;;;;;;6.47;4.93;;;;;;;9.77;100.00;99685.41;1748377;79;21826;-73
2021/04/05 09:54:47;;;;;;;7.00;5.70;;;;;;;9.70;100.00;99681.48;1774838;79;21840;-74
2021/04/05 09:57:21;;;;;;;5.93;4.83;;;;;;;9.72;100.00;99677.38;1778052;79;21875;-75
2021/04/05 09:59:56;;;;;;;6.60;4.63;;;;;;;9.90;100.00;99684.20;1746322;80;22243;-74
2021/04/05 10:02:35;;;;;;;6.03;4.70;;;;;;;9.90;100.00;99684.20;1766816;79;22177;-75
2021/04/05 10:05:05;;;;;;;5.90;4.67;;;;;;;10.15;100.00;99671.50;1762775;79;21675;-75
2021/04/05 10:07:35;;;;;;;5.37;4.33;;;;;;;10.15;100.00;99671.50;1735710;79;21674;-75
2021/04/05 10:10:05;;;;;;;5.53;4.37;;;;;;;10.15;100.00;99673.28;1742896;79;21847;-76
2021/04/05 10:12:33;;;;;;;5.47;3.97;;;;;;;9.94;100.00;99677.60;1742942;79;21919;-76
2021/04/05 10:15:03;;;;;;;5.93;3.80;;;;;;;9.71;100.00;99676.58;1767434;79;21740;-75
2021/04/05 10:17:31;;;;;;;6.57;4.00;;;;;;;9.64;100.00;99682.23;1770018;79;21876;-74
2021/04/05 10:20:06;;;;;;;8.07;5.10;;;;;;;9.56;100.00;99678.99;1767683;79;21814;-75
2021/04/05 10:22:41;;;;;;;23.33;16.33;;;;;;;9.56;100.00;99678.99;1753060;79;21646;-76
2021/04/05 10:25:14;;;;;;;6.03;4.43;;;;;;;9.55;100.00;99687.80;1740896;80;21693;-75
2021/04/05 10:27:43;;;;;;;6.43;4.90;;;;;;;9.49;100.00;99678.44;1769631;79;21596;-75
2021/04/05 10:30:15;;;;;;;4.43;3.37;;;;;;;9.52;100.00;99677.27;1765131;79;21579;-74
2021/04/05 10:32:43;;;;;;;6.03;4.13;;;;;;;9.36;100.00;99665.86;1765195;79;21565;-73
2021/04/05 10:35:15;;;;;;;5.63;4.07;;;;;;;9.36;100.00;99665.86;1753917;80;21975;-73
2021/04/05 10:37:45;;;;;;;7.40;6.50;;;;;;;9.30;100.00;99667.40;1781688;79;21531;-74
2021/04/05 10:40:17;;;;;;;7.00;4.47;;;;;;;9.22;100.00;99667.55;1776685;79;21367;-74
2021/04/05 10:42:53;;;;;;;4.67;3.20;;;;;;;9.31;100.00;99665.09;1763460;79;21534;-73
2021/04/05 10:45:27;;;;;;;4.97;3.57;;;;;;;9.31;100.00;99665.09;1775220;79;21552;-73
2021/04/05 10:48:21;;;;;;;7.10;5.23;;;;;;;9.48;100.00;99672.94;1770236;79;21469;-72
2021/04/05 10:51:02;;;;;;;7.13;5.07;;;;;;;9.57;100.00;99664.98;1772203;79;22152;-74
2021/04/05 10:53:34;;;;;;;7.75;5.97;;;;;;;9.75;100.00;99663.48;1761763;79;25777;-73
2021/04/05 10:56:06;;;;;;;4.97;3.53;;;;;;;9.89;100.00;99648.75;1757772;79;21104;-73
2021/04/05 10:58:50;;;;;;;4.83;2.73;;;;;;;9.89;100.00;99648.75;1764199;79;21650;-72
2021/04/05 11:01:20;;;;;;;5.60;2.93;;;;;;;9.81;100.00;99645.48;1774536;79;21473;-71
2021/04/05 11:03:50;;;;;;;5.83;2.87;;;;;;;9.80;100.00;99641.28;1762648;79;22111;-72
2021/04/05 11:06:21;;;;;;;6.57;2.57;;;;;;;9.85;100.00;99644.10;1765872;79;21787;-71
2021/04/05 11:08:51;;;;;;;4.53;2.87;;;;;;;9.91;100.00;99636.83;1771531;79;21494;-72
2021/04/05 11:11:32;;;;;;;4.77;3.03;;;;;;;9.92;100.00;99635.33;1764663;79;21061;-71
2021/04/05 11:14:08;;;;;;;5.80;4.77;;;;;;;9.92;100.00;99635.33;1759573;79;21623;-71
2021/04/05 11:16:37;;;;;;;5.33;3.40;;;;;;;9.90;100.00;99626.92;1766934;79;21699;-71
2021/04/05 11:19:09;;;;;;;5.90;3.70;;;;;;;9.90;100.00;99626.92;1736101;79;21657;-73
2021/04/05 11:21:43;;;;;;;6.10;4.17;;;;;;;9.84;100.00;99621.17;1758778;78;21811;-71
2021/04/05 11:24:34;;;;;;;5.90;3.40;;;;;;;9.96;100.00;99626.16;1767710;79;21547;-71
2021/04/05 11:27:06;;;;;;;5.73;3.13;;;;;;;9.96;100.00;99626.16;1695678;82;21804;-70
2021/04/05 11:29:35;;;;;;;4.80;3.20;;;;;;;9.86;100.00;99620.50;1693143;82;21565;-71
2021/04/05 11:32:05;;;;;;;4.87;3.07;;;;;;;9.86;100.00;99620.50;1703650;82;21995;-70
2021/04/05 11:34:35;;;;;;;6.23;3.27;;;;;;;9.85;100.00;99616.30;1670540;82;21871;-71
2021/04/05 11:37:08;;;;;;;4.97;3.03;;;;;;;10.02;100.00;99610.23;1699613;82;21892;-70
2021/04/05 11:39:38;;;;;;;10.98;7.33;;;;;;;10.23;100.00;99614.53;1690462;82;21455;-70
2021/04/05 11:42:08;;;;;;;7.33;4.73;;;;;;;10.19;97.32;99605.48;1703585;81;21689;-72
2021/04/05 11:44:53;;;;;;;5.62;3.33;;;;;;;10.19;97.32;99605.48;1712121;82;21855;-71
2021/04/05 11:47:21;;;;;;;4.57;3.07;;;;;;;10.15;100.00;99600.36;1700062;82;21265;-70
2021/04/05 11:49:50;;;;;;;5.43;3.50;;;;;;;10.21;100.00;99600.38;1772802;79;21586;-68
2021/04/05 11:52:31;;;;;;;5.87;3.23;;;;;;;10.33;100.00;99588.11;1771188;79;22259;-72
2021/04/05 11:55:04;;;;;;;5.67;3.50;;;;;;;10.33;100.00;99588.11;1768475;78;22253;-70
2021/04/05 11:57:46;;;;;;;6.23;3.80;;;;;;;10.52;99.65;99591.75;1766791;79;21990;-69
2021/04/05 12:00:18;;;;;;;7.20;3.90;;;;;;;10.51;98.31;99587.55;1747473;80;21894;-70
2021/04/05 12:03:08;;;;;;;4.47;3.03;;;;;;;10.51;98.31;99587.55;1756378;80;22092;-68
2021/04/05 12:05:49;;;;;;;6.37;3.40;;;;;;;10.43;97.03;99579.42;1736791;80;21855;-72
2021/04/05 12:08:30;;;;;;;6.08;3.00;;;;;;;10.33;97.42;99579.80;1733133;81;21640;-69
2021/04/05 12:11:05;;;;;;;5.17;2.87;;;;;;;10.29;95.92;99578.59;1751431;79;21645;-69
2021/04/05 12:13:44;;;;;;;5.30;2.83;;;;;;;10.27;97.65;99566.78;1757108;79;22443;-68
2021/04/05 12:16:12;;;;;;;4.90;2.80;;;;;;;10.36;96.47;99566.37;1770468;78;21764;-69
2021/04/05 12:18:42;;;;;;;5.97;4.20;;;;;;;10.28;88.03;99567.08;1776118;79;21632;-69
2021/04/05 12:21:13;;;;;;;6.33;3.97;;;;;;;10.17;90.94;99576.23;1772414;79;21939;-69
2021/04/05 12:23:42;;;;;;;7.13;2.20;;;;;;;10.17;89.27;99565.81;1769712;79;22787;-70
2021/04/05 12:26:12;;;;;;;5.60;3.50;;;;;;;10.25;89.06;99566.96;1772620;79;21844;-71
2021/04/05 12:28:43;;;;;;;6.35;3.10;;;;;;;10.25;89.06;99566.96;1768467;79;21801;-75
2021/04/05 12:31:12;;;;;;;6.53;3.03;;;;;;;10.30;92.84;99569.77;1748529;79;21096;-69
2021/04/05 12:33:42;;;;;;;6.90;3.75;;;;;;;10.27;92.09;99574.09;1750166;79;21499;-71
2021/04/05 12:36:12;;;;;;;7.20;3.47;;;;;;;9.92;94.39;99574.65;1767596;79;21119;-70
2021/04/05 12:38:40;;;;;;;8.00;4.17;;;;;;;9.92;94.39;99574.65;1757948;80;21817;-70
2021/04/05 12:41:09;;;;;;;129.53;76.70;;;;;;;9.80;90.89;99583.52;1765255;79;21801;-70
2021/04/05 12:43:38;;;;;;;627.17;509.50;;;;;;;9.80;90.89;99583.52;1771852;79;21850;-70
2021/04/05 12:46:15;;;;;;;66.20;50.85;;;;;;;9.81;92.93;99571.30;1749130;79;21604;-70
2021/04/05 12:48:44;;;;;;;486.87;435.73;;;;;;;9.92;93.53;99572.05;1745167;80;21222;-75
2021/04/05 12:51:16;;;;;;;21.17;18.87;;;;;;;10.06;91.48;99567.19;1712525;81;22279;-68
2021/04/05 12:53:44;;;;;;;138.25;127.53;;;;;;;10.06;91.48;99567.19;1777457;79;21612;-69
2021/04/05 12:56:20;;;;;;;13.10;11.90;;;;;;;10.10;89.50;99562.39;1767553;80;21036;-68
2021/04/05 12:58:53;;;;;;;6.93;2.80;;;;;;;10.16;87.68;99554.60;1747507;80;21624;-68
2021/04/05 13:01:38;;;;;;;9.83;6.03;;;;;;;10.21;80.09;99568.33;1748279;79;21501;-69
2021/04/05 13:04:08;;;;;;;11.00;6.70;;;;;;;9.95;82.01;99565.95;1752917;79;22116;-72
2021/04/05 13:06:45;;;;;;;10.03;6.70;;;;;;;9.79;86.22;99561.59;1763954;80;22830;-70
2021/04/05 13:09:27;;;;;;;303.07;241.40;;;;;;;9.49;90.65;99554.06;1774292;80;21308;-71
2021/04/05 13:12:20;;;;;;;10.03;7.23;;;;;;;9.42;90.99;99550.63;1742813;79;21565;-72
2021/04/05 13:15:04;;;;;;;7.87;4.93;;;;;;;9.42;90.99;99550.63;1782856;79;21769;-72
2021/04/05 13:17:35;;;;;;;5.20;2.67;;;;;;;9.40;95.07;99552.13;1769479;79;21593;-69
2021/04/05 13:20:13;;;;;;;5.60;3.08;;;;;;;9.43;94.25;99551.75;1764899;79;21579;-70
2021/04/05 13:22:52;;;;;;;5.03;2.70;;;;;;;9.48;95.46;99548.06;1752038;79;21151;-69
2021/04/05 13:25:40;;;;;;;6.77;3.47;;;;;;;9.45;95.83;99552.84;1765192;79;21578;-70
2021/04/05 13:28:09;;;;;;;3.93;2.60;;;;;;;9.38;96.72;99546.80;1769532;79;21582;-70
2021/04/05 13:30:40;;;;;;;5.77;3.20;;;;;;;9.33;95.03;99545.28;1754960;79;21902;-70
2021/04/05 13:33:10;;;;;;;6.50;3.40;;;;;;;9.25;92.21;99547.05;1772272;79;21467;-69
2021/04/05 13:35:38;;;;;;;6.87;2.87;;;;;;;9.12;92.47;99554.75;1773855;79;21332;-70
2021/04/05 13:38:10;;;;;;;5.77;2.40;;;;;;;9.01;93.74;99552.17;1781448;79;21565;-73
2021/04/05 13:40:40;;;;;;;8.10;3.90;;;;;;;9.00;97.34;99553.17;1715185;81;21956;-75
2021/04/05 13:43:16;;;;;;;9.08;5.20;;;;;;;9.05;98.12;99548.70;1758794;80;22425;-75
2021/04/05 13:45:48;;;;;;;19.27;16.90;;;;;;;9.12;95.13;99546.15;1750924;80;21151;-73
2021/04/05 13:48:16;;;;;;;22.13;19.87;;;;;;;9.18;100.00;99551.90;1770953;79;21385;-70
2021/04/05 13:50:46;;;;;;;149.03;135.27;;;;;;;9.20;100.00;99547.30;1782422;79;21883;-70
2021/04/05 13:53:25;;;;;;;34.67;31.20;;;;;;;9.20;100.00;99546.00;1770679;79;21402;-67
2021/04/05 13:55:53;;;;;;;6.90;4.00;;;;;;;9.23;100.00;99542.52;1760425;79;21401;-70
2021/04/05 13:58:26;;;;;;;9.03;4.27;;;;;;;9.16;99.09;99542.97;1774498;79;21323;-71
2021/04/05 14:00:54;;;;;;;63.40;41.07;;;;;;;9.10;100.00;99548.16;1752331;79;22130;-71
2021/04/05 14:03:25;;;;;;;513.30;393.77;;;;;;;9.15;100.00;99541.88;1699332;82;21509;-70
2021/04/05 14:05:53;;;;;;;30.50;18.73;;;;;;;9.16;100.00;99536.47;1692922;79;21354;-72
2021/04/05 14:08:23;;;;;;;17.73;11.50;;;;;;;9.13;99.34;99541.25;1752594;80;21383;-71
2021/04/05 14:11:24;;;;;;;11.90;6.17;;;;;;;9.08;99.40;99543.63;1760401;79;21479;-70
2021/04/05 14:13:55;;;;;;;10.93;5.27;;;;;;;8.97;98.62;99541.05;1739717;81;21444;-71
2021/04/05 14:16:35;;;;;;;29.60;19.15;;;;;;;8.83;97.82;99541.98;1760019;80;22160;-71
2021/04/05 14:19:30;;;;;;;15.33;10.00;;;;;;;8.77;100.00;99539.62;1777521;79;21176;-70
2021/04/05 14:22:19;;;;;;;8.77;4.17;;;;;;;8.75;98.56;99533.80;1747710;79;21806;-69
2021/04/05 14:24:51;;;;;;;7.53;4.17;;;;;;;8.73;100.00;99530.60;1763684;78;21380;-71
2021/04/05 14:27:42;;;;;;;4.43;3.27;;;;;;;8.70;99.19;99534.37;1753924;79;21767;-68
2021/04/05 14:30:12;;;;;;;6.87;3.47;;;;;;;8.61;98.33;99532.91;1765083;79;22115;-68
2021/04/05 14:32:55;;;;;;;91.47;75.63;;;;;;;8.53;98.89;99527.85;1779662;79;21183;-68
2021/04/05 14:35:34;;;;;;;12.53;8.33;;;;;;;8.45;100.00;99522.30;1772161;79;21430;-67
2021/04/05 14:38:11;;;;;;;10.00;5.07;;;;;;;8.45;100.00;99523.59;1727075;81;21715;-69
2021/04/05 14:40:43;;;;;;;92.63;65.50;;;;;;;8.41;100.00;99517.64;1729248;80;21841;-68
2021/04/05 14:43:26;;;;;;;108.30;95.37;;;;;;;8.32;100.00;99513.05;1753375;79;21373;-67
2021/04/05 14:45:55;;;;;;;68.77;61.33;;;;;;;8.26;100.00;99511.21;1742264;80;21439;-69
2021/04/05 14:48:23;;;;;;;19.17;16.97;;;;;;;8.23;100.00;99513.67;1754530;80;21593;-68
2021/04/05 14:50:52;;;;;;;101.07;90.83;;;;;;;8.23;100.00;99511.58;1773965;79;21480;-69
2021/04/05 14:53:37;;;;;;;68.07;61.27;;;;;;;8.20;100.00;99514.05;1774719;80;21604;-67
2021/04/05 14:56:10;;;;;;;144.53;130.40;;;;;;;8.14;100.00;99513.47;1778680;79;21366;-67
2021/04/05 14:58:39;;;;;;;20.27;18.37;;;;;;;8.08;100.00;99505.64;1766026;80;21286;-68
2021/04/05 15:01:13;;;;;;;12.10;10.93;;;;;;;8.04;100.00;99507.30;1770823;79;21401;-67
2021/04/05 15:03:44;;;;;;;9.43;8.37;;;;;;;8.00;100.00;99513.86;1769135;80;21241;-68
2021/04/05 15:06:14;;;;;;;18.07;16.03;;;;;;;7.95;100.00;99515.38;1765545;79;21465;-68
2021/04/05 15:08:45;;;;;;;15.23;11.43;;;;;;;7.90;100.00;99515.14;1775017;80;23440;-68
2021/04/05 15:11:19;;;;;;;11.10;7.72;;;;;;;7.87;100.00;99509.02;1761814;79;21328;-68
2021/04/05 15:13:49;;;;;;;10.77;7.80;;;;;;;7.85;100.00;99510.50;1770533;79;21587;-67
2021/04/05 15:16:21;;;;;;;16.13;12.60;;;;;;;7.77;100.00;99510.63;1759746;79;21453;-67
2021/04/05 15:18:52;;;;;;;32.93;29.57;;;;;;;7.69;100.00;99502.92;1749237;80;21102;-68
2021/04/05 15:21:21;;;;;;;28.93;25.93;;;;;;;7.63;100.00;99510.16;1775712;79;22701;-67
2021/04/05 15:23:51;;;;;;;24.03;21.43;;;;;;;7.58;100.00;99504.69;1770325;79;21491;-67
2021/04/05 15:26:24;;;;;;;90.97;81.43;;;;;;;7.51;100.00;99507.23;1777681;79;21720;-66